Time;durP1;ratioP1;P1;durP2;ratioP2;P2;SDS_P1;SDS_P2;PMS_P1;PMS_P2;Temp;Humidity;BMP_temperature;BMP_pressure;BME280_temperature;BME280_humidity;BME280_pressure;Samples;Min_cycle;Max_cycle;Signal;HPM_P1;HPM_P2
2021/04/10 00:00:18;;;;;;;2.65;1.40;;;4.90;99.90;;;;;;2082579;28;20208;-68
2021/04/10 00:01:20;;;;;;;3.15;1.52;;;5.00;99.90;;;;;;2082599;28;20195;-65
2021/04/10 00:02:21;;;;;;;2.92;1.52;;;5.00;99.90;;;;;;2082709;28;20181;-65
2021/04/10 00:03:22;;;;;;;3.22;1.58;;;5.10;99.90;;;;;;2082076;28;20181;-66
2021/04/10 00:04:23;;;;;;;1.85;1.35;;;5.10;99.90;;;;;;2082167;28;20178;-66
2021/04/10 00:05:27;;;;;;;2.70;1.53;;;5.20;99.90;;;;;;2073294;28;20171;-68
2021/04/10 00:06:27;;;;;;;2.42;1.33;;;5.20;99.90;;;;;;2073891;28;20260;-65
2021/04/10 00:07:28;;;;;;;2.13;1.30;;;5.20;99.90;;;;;;2073461;28;20594;-66
2021/04/10 00:08:29;;;;;;;4.50;1.67;;;5.20;99.90;;;;;;2073554;28;20648;-67
2021/04/10 00:09:29;;;;;;;3.30;1.60;;;5.30;99.90;;;;;;2082277;28;20339;-67
2021/04/10 00:10:31;;;;;;;3.63;1.40;;;5.30;99.90;;;;;;2082309;28;20186;-65
2021/04/10 00:11:34;;;;;;;2.55;1.40;;;5.20;99.90;;;;;;2081769;28;20173;-65
2021/04/10 00:12:35;;;;;;;2.42;1.55;;;5.20;99.90;;;;;;2082168;28;20265;-66
2021/04/10 00:13:35;;;;;;;3.30;1.50;;;5.10;99.90;;;;;;2082284;28;20180;-67
2021/04/10 00:14:36;;;;;;;3.70;1.57;;;5.10;99.90;;;;;;2082343;28;20189;-66
2021/04/10 00:15:37;;;;;;;3.53;1.30;;;5.10;99.90;;;;;;2082113;28;20189;-66
2021/04/10 00:16:38;;;;;;;4.30;1.93;;;5.40;99.90;;;;;;2073444;28;20179;-66
2021/04/10 00:17:39;;;;;;;3.93;1.40;;;5.60;99.90;;;;;;2073287;28;20170;-66
2021/04/10 00:18:40;;;;;;;3.60;1.30;;;5.70;99.90;;;;;;2082196;28;20276;-67
2021/04/10 00:19:40;;;;;;;2.50;1.50;;;5.80;99.90;;;;;;2082140;28;20272;-65
2021/04/10 00:20:41;;;;;;;1.27;1.10;;;5.80;99.90;;;;;;2082066;28;20215;-66
2021/04/10 00:21:42;;;;;;;2.57;1.33;;;5.90;99.90;;;;;;2081906;28;20170;-65
2021/04/10 00:22:43;;;;;;;4.27;1.50;;;5.90;99.90;;;;;;2082141;28;20569;-66
2021/04/10 00:23:43;;;;;;;1.87;1.13;;;6.00;99.90;;;;;;2082282;28;20272;-65
2021/04/10 00:24:44;;;;;;;4.17;1.40;;;6.10;99.00;;;;;;2081981;28;20472;-66
2021/04/10 00:25:45;;;;;;;5.47;1.20;;;6.30;99.30;;;;;;2082199;28;20175;-65
2021/04/10 00:26:45;;;;;;;2.40;1.20;;;6.30;99.30;;;;;;2081984;28;20651;-68
2021/04/10 00:27:48;;;;;;;2.67;1.23;;;6.40;98.70;;;;;;2082224;28;20187;-67
2021/04/10 00:28:49;;;;;;;2.55;1.50;;;6.40;98.60;;;;;;2082087;28;20180;-66
2021/04/10 00:29:50;;;;;;;3.40;1.30;;;6.50;98.30;;;;;;2081640;28;20704;-67
2021/04/10 00:30:50;;;;;;;2.73;1.37;;;6.50;98.80;;;;;;2079175;28;20184;-64
2021/04/10 00:31:51;;;;;;;2.57;1.33;;;6.50;98.40;;;;;;2081918;28;20171;-65
2021/04/10 00:32:52;;;;;;;5.03;1.40;;;6.60;98.10;;;;;;2081936;28;20264;-69
2021/04/10 00:33:52;;;;;;;3.73;1.73;;;6.60;97.90;;;;;;2082178;28;20214;-67
2021/04/10 00:34:53;;;;;;;2.73;1.30;;;6.60;98.10;;;;;;2081893;28;20199;-65
2021/04/10 00:35:54;;;;;;;2.60;1.30;;;6.60;98.10;;;;;;2082183;28;20234;-69
2021/04/10 00:36:54;;;;;;;4.90;1.20;;;6.80;96.20;;;;;;2081933;28;20701;-68
2021/04/10 00:37:57;;;;;;;2.43;1.10;;;7.00;95.20;;;;;;2082175;28;20246;-67
2021/04/10 00:38:57;;;;;;;2.95;1.20;;;7.20;94.00;;;;;;2081899;28;20181;-66
2021/04/10 00:39:58;;;;;;;2.00;1.17;;;7.30;93.30;;;;;;2082159;28;20697;-68
2021/04/10 00:41:00;;;;;;;2.30;1.20;;;7.40;93.10;;;;;;2081926;28;20211;-67
2021/04/10 00:42:01;;;;;;;3.10;1.02;;;7.50;92.70;;;;;;2082084;28;20184;-67
2021/04/10 00:43:01;;;;;;;4.20;1.20;;;7.60;91.70;;;;;;2073178;28;20716;-67
2021/04/10 00:44:02;;;;;;;1.97;1.30;;;7.70;91.50;;;;;;2073310;28;20208;-69
2021/04/10 00:45:06;;;;;;;2.90;1.20;;;7.80;90.10;;;;;;2081971;28;20174;-66
2021/04/10 00:46:07;;;;;;;2.53;1.13;;;7.90;87.70;;;;;;2082016;28;20759;-67
2021/04/10 00:47:07;;;;;;;3.22;1.30;;;7.90;88.30;;;;;;2082094;28;20173;-66
2021/04/10 00:48:08;;;;;;;4.80;1.20;;;8.00;88.40;;;;;;2082033;28;20601;-68
2021/04/10 00:49:09;;;;;;;2.17;1.37;;;8.00;88.80;;;;;;2081853;28;20204;-66
2021/04/10 00:50:10;;;;;;;1.50;1.20;;;8.00;89.30;;;;;;2081907;28;20826;-66
2021/04/10 00:51:11;;;;;;;4.00;1.30;;;8.00;86.80;;;;;;2072956;28;20189;-66
2021/04/10 00:52:14;;;;;;;2.43;1.50;;;8.10;87.80;;;;;;2073184;28;20197;-65
2021/04/10 00:53:16;;;;;;;2.13;1.38;;;8.10;84.40;;;;;;2081811;28;20256;-67
2021/04/10 00:54:18;;;;;;;3.05;1.17;;;8.20;85.70;;;;;;2081936;28;20588;-66
2021/04/10 00:55:19;;;;;;;3.17;1.30;;;8.10;84.70;;;;;;2082037;28;20185;-67
2021/04/10 00:56:19;;;;;;;4.23;1.33;;;8.20;81.40;;;;;;2073242;28;20414;-66
2021/04/10 00:57:21;;;;;;;4.23;1.23;;;8.20;82.40;;;;;;2073131;28;20297;-66
2021/04/10 00:58:22;;;;;;;3.80;1.58;;;8.20;83.90;;;;;;2081975;28;20215;-66
2021/04/10 00:59:23;;;;;;;3.30;1.30;;;8.20;84.40;;;;;;2081707;28;20294;-66
2021/04/10 01:00:24;;;;;;;1.37;1.00;;;8.20;82.50;;;;;;2081776;28;20230;-66
2021/04/10 01:01:25;;;;;;;2.83;1.10;;;8.20;80.50;;;;;;2081611;28;20169;-68
2021/04/10 01:02:27;;;;;;;2.30;1.02;;;8.30;79.80;;;;;;2082090;28;20223;-64
2021/04/10 01:03:28;;;;;;;2.15;1.05;;;8.30;78.60;;;;;;2081913;28;20184;-66
2021/04/10 01:04:30;;;;;;;2.08;1.08;;;8.40;75.10;;;;;;2082048;28;20177;-67
2021/04/10 01:05:31;;;;;;;1.77;1.20;;;8.50;75.60;;;;;;2081742;28;20181;-66
2021/04/10 01:06:32;;;;;;;4.47;1.30;;;8.50;75.50;;;;;;2081919;28;20181;-68
2021/04/10 01:07:33;;;;;;;1.80;1.17;;;8.50;75.70;;;;;;2081842;28;20183;-66
2021/04/10 01:08:34;;;;;;;2.87;1.23;;;8.50;74.90;;;;;;2081737;28;20230;-66
2021/04/10 01:09:36;;;;;;;1.80;1.10;;;8.50;73.80;;;;;;2081719;28;20717;-67
2021/04/10 01:10:37;;;;;;;3.40;1.20;;;8.60;74.50;;;;;;2081563;28;20196;-68
2021/04/10 01:12:22;;;;;;;2.90;1.17;;;8.50;76.30;;;;;;2081651;28;20185;-67
2021/04/10 01:13:48;;;;;;;2.20;1.20;;;8.50;76.00;;;;;;2056326;28;20198;-67
2021/04/10 01:15:25;;;;;;;2.47;1.17;;;8.50;74.60;;;;;;2056404;28;20198;-67
2021/04/10 01:16:37;;;;;;;2.78;1.23;;;8.50;73.30;;;;;;2056213;28;20278;-66
2021/04/10 01:17:52;;;;;;;3.53;1.50;;;8.50;69.60;;;;;;2056236;28;20744;-66
2021/04/10 01:19:34;;;;;;;4.55;1.20;;;8.60;69.40;;;;;;2057262;28;20201;-67
2021/04/10 01:20:59;;;;;;;2.83;1.10;;;8.60;70.10;;;;;;2069945;28;20177;-67
2021/04/10 01:22:45;;;;;;;2.22;1.10;;;8.60;68.40;;;;;;2076117;28;20252;-66
2021/04/10 01:24:29;;;;;;;3.78;0.90;;;8.70;67.10;;;;;;2081672;28;20652;-65
2021/04/10 01:25:50;;;;;;;2.38;0.88;;;8.70;66.50;;;;;;2081806;28;20173;-66
2021/04/10 01:27:10;;;;;;;3.55;1.60;;;8.70;68.30;;;;;;2081515;28;20183;-66
2021/04/10 01:28:41;;;;;;;3.33;1.20;;;8.70;67.40;;;;;;2072800;28;20170;-66
2021/04/10 01:29:49;;;;;;;3.40;1.20;;;8.60;67.40;;;;;;2068809;28;20233;-65
2021/04/10 01:30:52;;;;;;;3.92;1.35;;;8.60;66.10;;;;;;2072915;28;20174;-66
2021/04/10 01:31:55;;;;;;;2.30;1.15;;;8.60;65.10;;;;;;2072961;28;20928;-65
2021/04/10 01:32:59;;;;;;;2.85;1.17;;;8.70;64.20;;;;;;2081677;28;20565;-65
2021/04/10 01:34:06;;;;;;;2.05;1.10;;;8.70;64.90;;;;;;2072895;28;20181;-66
2021/04/10 01:35:14;;;;;;;2.55;1.13;;;8.70;63.60;;;;;;2065386;28;20186;-66
2021/04/10 01:36:22;;;;;;;2.35;0.95;;;8.80;64.40;;;;;;2074037;28;20183;-67
2021/04/10 01:37:30;;;;;;;4.32;1.50;;;8.70;64.10;;;;;;2072864;28;20260;-65
2021/04/10 01:38:31;;;;;;;2.53;0.90;;;8.80;64.60;;;;;;2065663;28;20178;-66
2021/04/10 01:39:34;;;;;;;3.50;1.30;;;8.70;65.00;;;;;;2064734;28;20685;-65
2021/04/10 01:40:36;;;;;;;2.83;1.17;;;8.70;64.90;;;;;;2073243;28;20203;-67
2021/04/10 01:41:44;;;;;;;2.13;1.10;;;8.70;64.70;;;;;;2072723;28;20578;-66
2021/04/10 01:42:47;;;;;;;3.90;1.25;;;8.70;64.50;;;;;;2073408;28;20178;-68
2021/04/10 01:43:49;;;;;;;2.13;1.10;;;8.70;65.40;;;;;;2081493;28;20181;-68
2021/04/10 01:44:52;;;;;;;2.58;1.15;;;8.70;65.20;;;;;;2072905;28;20309;-67
2021/04/10 01:45:55;;;;;;;3.25;1.50;;;8.70;66.30;;;;;;2064692;28;20186;-66
2021/04/10 01:46:58;;;;;;;2.85;1.10;;;8.60;66.10;;;;;;2073121;28;20181;-65
2021/04/10 01:48:05;;;;;;;2.97;1.13;;;8.60;66.50;;;;;;2072731;28;20182;-66
2021/04/10 01:49:06;;;;;;;2.58;1.20;;;8.60;66.60;;;;;;2065199;28;20182;-66
2021/04/10 01:50:08;;;;;;;2.20;1.10;;;8.60;67.20;;;;;;2072709;28;20186;-66
2021/04/10 01:51:09;;;;;;;2.80;1.30;;;8.60;66.70;;;;;;2081326;28;20780;-66
2021/04/10 01:52:11;;;;;;;2.08;1.20;;;8.60;65.90;;;;;;2072488;28;20190;-66
2021/04/10 01:53:14;;;;;;;1.70;1.10;;;8.60;66.00;;;;;;2064895;28;20190;-67
2021/04/10 01:54:15;;;;;;;6.10;1.20;;;8.60;65.80;;;;;;2072764;28;20186;-66
2021/04/10 01:55:17;;;;;;;1.23;1.00;;;8.60;66.20;;;;;;2072764;28;20214;-64
2021/04/10 01:56:19;;;;;;;3.10;1.30;;;8.60;66.20;;;;;;2072591;28;20477;-65
2021/04/10 01:57:21;;;;;;;5.47;1.20;;;8.60;66.50;;;;;;2065274;28;20190;-67
2021/04/10 01:58:22;;;;;;;1.88;0.90;;;8.60;66.90;;;;;;2072744;28;20236;-66
2021/04/10 01:59:24;;;;;;;1.70;1.00;;;8.50;67.20;;;;;;2072495;28;20194;-68
2021/04/10 02:00:29;;;;;;;3.58;1.20;;;8.50;66.80;;;;;;2072368;28;20194;-67
2021/04/10 02:01:31;;;;;;;4.90;1.23;;;8.50;67.00;;;;;;2073034;28;20781;-66
2021/04/10 02:02:38;;;;;;;2.90;1.17;;;8.50;66.50;;;;;;2081219;28;20185;-66
2021/04/10 02:03:44;;;;;;;4.28;1.00;;;8.50;67.40;;;;;;2081282;28;20247;-66
2021/04/10 02:04:47;;;;;;;3.75;1.17;;;8.50;67.80;;;;;;2081256;28;20219;-67
2021/04/10 02:05:49;;;;;;;3.53;1.25;;;8.50;67.80;;;;;;2072607;28;20232;-65
2021/04/10 02:06:51;;;;;;;1.98;1.10;;;8.50;68.90;;;;;;2064444;28;20182;-66
2021/04/10 02:07:53;;;;;;;5.15;1.30;;;8.40;69.30;;;;;;2064611;28;20230;-67
2021/04/10 02:08:55;;;;;;;2.67;1.20;;;8.40;69.40;;;;;;2064441;28;20189;-66
2021/04/10 02:09:56;;;;;;;2.92;1.30;;;8.40;70.20;;;;;;2064359;28;20593;-67
2021/04/10 02:11:00;;;;;;;2.50;0.90;;;8.40;70.30;;;;;;2072320;28;20284;-68
2021/04/10 02:12:01;;;;;;;2.10;1.17;;;8.40;71.10;;;;;;2072164;28;20198;-68
2021/04/10 02:13:03;;;;;;;3.30;1.20;;;8.40;71.80;;;;;;2072196;28;20194;-66
2021/04/10 02:14:05;;;;;;;3.80;1.15;;;8.40;72.10;;;;;;2064407;28;20186;-66
2021/04/10 02:15:07;;;;;;;3.42;1.23;;;8.40;72.90;;;;;;2072608;28;20659;-67
2021/04/10 02:16:08;;;;;;;3.58;1.20;;;8.30;72.10;;;;;;2080988;28;20196;-66
2021/04/10 02:17:08;;;;;;;3.07;1.10;;;8.30;72.00;;;;;;2081136;28;20212;-68
2021/04/10 02:18:09;;;;;;;2.70;1.07;;;8.30;72.30;;;;;;2081163;28;20181;-67
2021/04/10 02:19:10;;;;;;;3.20;1.40;;;8.30;72.30;;;;;;2080981;28;20273;-67
2021/04/10 02:20:13;;;;;;;3.07;1.00;;;8.30;73.40;;;;;;2072403;28;20188;-68
2021/04/10 02:21:13;;;;;;;2.00;1.23;;;8.30;74.90;;;;;;2061739;28;20213;-67
2021/04/10 02:22:15;;;;;;;2.00;1.00;;;8.30;72.70;;;;;;2072416;28;20202;-67
2021/04/10 02:23:19;;;;;;;2.08;1.13;;;8.20;72.50;;;;;;2081077;28;20643;-66
2021/04/10 02:24:20;;;;;;;2.53;1.05;;;8.20;73.10;;;;;;2081123;28;20185;-67
2021/04/10 02:25:26;;;;;;;1.57;1.13;;;8.20;73.60;;;;;;2081013;28;20184;-66
2021/04/10 02:26:28;;;;;;;4.15;1.15;;;8.20;73.80;;;;;;2079356;28;20740;-64
2021/04/10 02:27:28;;;;;;;1.83;0.93;;;8.20;72.40;;;;;;2073496;28;20695;-65
2021/04/10 02:28:29;;;;;;;4.97;1.57;;;8.20;72.20;;;;;;2072906;28;20174;-67
2021/04/10 02:29:31;;;;;;;2.17;1.30;;;8.20;72.40;;;;;;2072593;28;20702;-65
2021/04/10 02:30:32;;;;;;;2.25;1.20;;;8.20;71.90;;;;;;2064348;28;20209;-66
2021/04/10 02:31:59;;;;;;;7.55;1.00;;;8.20;72.20;;;;;;2064025;28;20244;-65
2021/04/10 02:33:09;;;;;;;2.83;1.00;;;8.30;71.50;;;;;;2047834;29;20658;-66
2021/04/10 02:34:16;;;;;;;2.35;1.15;;;8.30;71.50;;;;;;2057430;28;20259;-65
2021/04/10 02:35:36;;;;;;;3.75;1.00;;;8.30;72.00;;;;;;2056997;28;20170;-65
2021/04/10 02:36:39;;;;;;;2.60;1.10;;;8.30;73.00;;;;;;2058762;28;20572;-64
2021/04/10 02:37:42;;;;;;;3.63;1.10;;;8.20;72.60;;;;;;2064434;28;20178;-67
2021/04/10 02:38:44;;;;;;;1.10;0.90;;;8.20;73.20;;;;;;2064122;28;20736;-65
2021/04/10 02:39:47;;;;;;;2.53;1.67;;;8.20;74.00;;;;;;2064259;28;20273;-68
2021/04/10 02:40:54;;;;;;;4.25;1.50;;;8.20;72.50;;;;;;2072784;28;20213;-67
2021/04/10 02:42:01;;;;;;;2.92;1.15;;;8.20;72.90;;;;;;2063807;28;20175;-66
2021/04/10 02:43:06;;;;;;;1.83;1.05;;;8.20;73.10;;;;;;2056773;28;20239;-67
2021/04/10 02:44:14;;;;;;;3.80;1.02;;;8.20;73.50;;;;;;2064844;28;20212;-66
2021/04/10 02:45:21;;;;;;;3.63;1.35;;;8.20;73.40;;;;;;2064206;28;20186;-64
2021/04/10 02:46:27;;;;;;;1.88;1.10;;;8.10;73.80;;;;;;2056991;28;20551;-66
2021/04/10 02:47:29;;;;;;;2.95;1.20;;;8.20;73.10;;;;;;2056893;28;20262;-65
2021/04/10 02:48:47;;;;;;;2.97;1.17;;;8.20;72.70;;;;;;2056237;28;20190;-66
2021/04/10 02:49:55;;;;;;;5.65;1.30;;;8.20;74.00;;;;;;2058154;28;20713;-67
2021/04/10 02:50:58;;;;;;;2.63;1.38;;;8.20;72.70;;;;;;2064129;28;20202;-65
2021/04/10 02:52:01;;;;;;;2.92;1.10;;;8.20;72.70;;;;;;2056202;28;20187;-64
2021/04/10 02:53:06;;;;;;;2.17;1.33;;;8.30;72.70;;;;;;2064585;28;20213;-65
2021/04/10 02:54:08;;;;;;;2.47;1.10;;;8.30;73.60;;;;;;2063593;28;20181;-65
2021/04/10 02:55:20;;;;;;;2.85;1.13;;;8.20;74.90;;;;;;2055888;28;20190;-65
2021/04/10 02:56:26;;;;;;;2.20;1.40;;;8.20;72.30;;;;;;2065529;28;20261;-64
2021/04/10 02:57:28;;;;;;;1.85;1.17;;;8.20;72.40;;;;;;2064137;28;20171;-66
2021/04/10 02:58:31;;;;;;;1.38;1.10;;;8.20;72.60;;;;;;2055844;28;20305;-65
2021/04/10 02:59:33;;;;;;;2.70;1.00;;;8.20;73.60;;;;;;2064179;28;20206;-66
2021/04/10 03:00:38;;;;;;;3.95;1.33;;;8.10;73.50;;;;;;2072542;28;20273;-65
2021/04/10 03:01:40;;;;;;;2.20;1.00;;;8.10;74.50;;;;;;2072664;28;20181;-65
2021/04/10 03:02:41;;;;;;;2.47;0.98;;;8.00;71.80;;;;;;2072594;28;20190;-65
2021/04/10 03:03:43;;;;;;;3.30;1.25;;;8.10;71.10;;;;;;2063919;28;20175;-65
2021/04/10 03:04:46;;;;;;;2.53;1.20;;;8.10;72.50;;;;;;2063981;28;20182;-65
2021/04/10 03:05:47;;;;;;;2.85;1.02;;;8.10;73.30;;;;;;2063999;28;20179;-65
2021/04/10 03:06:48;;;;;;;2.72;1.42;;;8.10;73.40;;;;;;2063896;28;20317;-65
2021/04/10 03:07:52;;;;;;;2.33;1.20;;;8.10;73.30;;;;;;2063993;28;20174;-65
2021/04/10 03:08:53;;;;;;;1.92;1.27;;;8.10;72.40;;;;;;2064105;28;20685;-65
2021/04/10 03:09:54;;;;;;;3.17;1.13;;;8.10;70.80;;;;;;2063980;28;20205;-66
2021/04/10 03:10:55;;;;;;;2.92;1.30;;;8.10;70.20;;;;;;2055915;28;20585;-66
2021/04/10 03:11:56;;;;;;;2.92;1.10;;;8.10;70.60;;;;;;2063860;28;20213;-65
2021/04/10 03:12:57;;;;;;;3.47;1.43;;;8.10;71.50;;;;;;2063803;28;20178;-64
2021/04/10 03:13:58;;;;;;;1.45;0.98;;;8.10;70.20;;;;;;2063900;28;20687;-64
2021/04/10 03:14:58;;;;;;;2.57;1.10;;;8.10;70.10;;;;;;2072498;28;20194;-66
2021/04/10 03:15:59;;;;;;;4.00;1.20;;;8.10;69.10;;;;;;2072634;28;20197;-64
2021/04/10 03:17:02;;;;;;;2.77;0.90;;;8.10;69.60;;;;;;2063775;28;20198;-64
2021/04/10 03:18:06;;;;;;;1.92;1.33;;;8.20;70.50;;;;;;2064222;28;20818;-66
2021/04/10 03:19:08;;;;;;;4.13;1.20;;;8.10;69.30;;;;;;2063801;28;20182;-66
2021/04/10 03:20:14;;;;;;;1.75;1.20;;;8.10;69.50;;;;;;2056089;28;20193;-65
2021/04/10 03:21:14;;;;;;;2.33;1.00;;;8.10;69.40;;;;;;2064194;28;20301;-68
2021/04/10 03:22:16;;;;;;;1.90;1.20;;;8.10;69.20;;;;;;2063925;28;20177;-65
2021/04/10 03:23:18;;;;;;;3.10;1.25;;;8.10;69.50;;;;;;2064006;28;20230;-65
2021/04/10 03:24:19;;;;;;;1.70;1.20;;;8.10;69.70;;;;;;2072639;28;20739;-66
2021/04/10 03:25:20;;;;;;;3.33;1.10;;;8.10;69.10;;;;;;2063693;28;20547;-65
2021/04/10 03:26:22;;;;;;;3.37;1.10;;;8.10;69.20;;;;;;2055781;28;20195;-64
2021/04/10 03:27:24;;;;;;;3.78;1.10;;;8.10;70.10;;;;;;2055796;28;20230;-64
2021/04/10 03:28:29;;;;;;;3.20;1.20;;;8.00;70.10;;;;;;2055993;28;20217;-65
2021/04/10 03:29:30;;;;;;;1.83;1.10;;;8.10;69.60;;;;;;2064205;28;20202;-65
2021/04/10 03:30:31;;;;;;;3.15;1.10;;;8.10;69.70;;;;;;2072451;28;20185;-68
2021/04/10 03:31:33;;;;;;;1.55;1.00;;;8.10;70.40;;;;;;2072259;28;20212;-66
2021/04/10 03:32:34;;;;;;;2.42;1.20;;;8.10;70.50;;;;;;2072667;28;20243;-66
2021/04/10 03:33:36;;;;;;;2.23;1.27;;;8.10;70.50;;;;;;2063863;28;20240;-64
2021/04/10 03:34:37;;;;;;;2.65;1.30;;;8.10;69.60;;;;;;2055899;28;20179;-64
2021/04/10 03:35:37;;;;;;;2.70;1.00;;;8.10;69.60;;;;;;2063786;28;20669;-65
2021/04/10 03:36:39;;;;;;;2.63;0.90;;;8.00;70.40;;;;;;2063720;28;20175;-64
2021/04/10 03:37:40;;;;;;;1.83;1.10;;;8.10;70.50;;;;;;2055874;28;20179;-64
2021/04/10 03:38:42;;;;;;;4.78;1.10;;;8.00;70.60;;;;;;2055791;28;20639;-67
2021/04/10 03:39:43;;;;;;;1.77;0.90;;;8.00;71.00;;;;;;2055883;28;20249;-67
2021/04/10 03:40:44;;;;;;;2.47;0.93;;;8.00;71.00;;;;;;2063563;28;20210;-66
2021/04/10 03:41:45;;;;;;;2.17;1.07;;;8.00;70.70;;;;;;2072195;28;20174;-66
2021/04/10 03:42:46;;;;;;;5.00;1.48;;;8.00;71.30;;;;;;2063756;28;20186;-66
2021/04/10 03:43:46;;;;;;;3.63;1.13;;;8.00;71.00;;;;;;2063788;28;20177;-64
2021/04/10 03:44:47;;;;;;;1.47;1.00;;;8.00;71.00;;;;;;2072394;28;20518;-66
2021/04/10 03:45:48;;;;;;;2.80;1.07;;;8.00;71.80;;;;;;2072455;28;20174;-67
2021/04/10 03:46:49;;;;;;;4.93;1.30;;;8.00;71.60;;;;;;2072395;28;20210;-66
2021/04/10 03:47:52;;;;;;;3.13;1.00;;;8.00;72.00;;;;;;2072474;28;20695;-66
2021/04/10 03:48:52;;;;;;;2.22;1.10;;;8.00;72.40;;;;;;2072279;28;20260;-65
2021/04/10 03:49:53;;;;;;;2.13;1.10;;;8.00;72.30;;;;;;2072475;28;20202;-67
2021/04/10 03:50:54;;;;;;;1.97;1.00;;;8.00;72.30;;;;;;2072420;28;20648;-66
2021/04/10 03:51:55;;;;;;;3.63;1.27;;;8.00;72.00;;;;;;2072113;28;20553;-66
2021/04/10 03:52:55;;;;;;;1.43;0.90;;;8.10;72.60;;;;;;2072365;28;20185;-64
2021/04/10 03:53:57;;;;;;;4.10;1.23;;;8.00;72.20;;;;;;2072422;28;20533;-66
2021/04/10 03:54:57;;;;;;;2.80;1.30;;;8.00;71.80;;;;;;2072328;28;20218;-65
2021/04/10 03:55:58;;;;;;;1.90;1.20;;;8.00;72.80;;;;;;2072412;28;20193;-64
2021/04/10 03:56:59;;;;;;;3.17;1.10;;;8.00;73.20;;;;;;2072456;28;20185;-65
2021/04/10 03:58:01;;;;;;;2.00;1.10;;;7.90;72.50;;;;;;2063760;28;20193;-66
2021/04/10 03:59:02;;;;;;;1.85;1.15;;;7.90;73.00;;;;;;2063790;28;20225;-66
2021/04/10 04:00:05;;;;;;;3.90;1.23;;;7.90;73.70;;;;;;2072504;28;20189;-64
2021/04/10 04:01:06;;;;;;;3.80;1.30;;;8.00;73.60;;;;;;2072153;28;20588;-67
2021/04/10 04:02:07;;;;;;;2.03;1.30;;;8.00;72.70;;;;;;2072350;28;20205;-65
2021/04/10 04:03:08;;;;;;;3.57;1.60;;;8.00;73.60;;;;;;2072273;28;20712;-66
2021/04/10 04:04:08;;;;;;;4.60;1.20;;;8.00;75.00;;;;;;2063562;28;20426;-66
2021/04/10 04:05:11;;;;;;;2.23;1.20;;;7.90;73.30;;;;;;2063627;28;20384;-66
2021/04/10 04:06:11;;;;;;;5.00;1.10;;;8.00;72.20;;;;;;2073362;28;20192;-65
2021/04/10 04:07:12;;;;;;;3.03;1.00;;;8.00;70.80;;;;;;2073838;28;20192;-66
2021/04/10 04:08:13;;;;;;;2.73;0.83;;;8.00;71.80;;;;;;2065186;28;20186;-66
2021/04/10 04:09:14;;;;;;;2.20;1.37;;;8.00;70.90;;;;;;2065033;28;20248;-66
2021/04/10 04:10:16;;;;;;;2.40;0.90;;;8.00;71.20;;;;;;2073822;28;20174;-66
2021/04/10 04:11:16;;;;;;;4.65;1.13;;;8.00;71.30;;;;;;2073547;28;20671;-66
2021/04/10 04:12:17;;;;;;;4.10;1.17;;;8.00;72.00;;;;;;2073907;28;20188;-65
2021/04/10 04:13:18;;;;;;;2.13;0.93;;;8.00;73.00;;;;;;2073745;28;20178;-67
2021/04/10 04:14:19;;;;;;;3.70;1.10;;;8.00;72.90;;;;;;2073884;28;20195;-66
2021/04/10 04:15:19;;;;;;;2.27;1.13;;;8.00;73.50;;;;;;2073826;28;20585;-66
2021/04/10 04:16:20;;;;;;;1.90;1.20;;;7.90;75.10;;;;;;2073903;28;20652;-67
2021/04/10 04:17:21;;;;;;;1.93;1.00;;;7.90;73.90;;;;;;2073816;28;20273;-65
2021/04/10 04:18:22;;;;;;;1.83;1.10;;;7.80;74.60;;;;;;2073882;28;20186;-64
2021/04/10 04:19:22;;;;;;;3.73;1.20;;;7.80;74.80;;;;;;2073772;28;20201;-67
2021/04/10 04:20:23;;;;;;;2.30;1.00;;;7.80;74.80;;;;;;2073911;28;20675;-65
2021/04/10 04:21:24;;;;;;;2.70;1.07;;;7.80;75.40;;;;;;2073727;28;20217;-65
2021/04/10 04:22:24;;;;;;;2.03;1.03;;;7.80;75.90;;;;;;2073843;28;20185;-66
2021/04/10 04:23:25;;;;;;;3.20;1.20;;;7.90;75.40;;;;;;2074021;28;20186;-66
2021/04/10 04:24:26;;;;;;;3.13;1.10;;;7.90;75.10;;;;;;2073696;28;20653;-65
2021/04/10 04:25:27;;;;;;;1.88;1.20;;;7.80;75.70;;;;;;2073901;28;20273;-65
2021/04/10 04:26:28;;;;;;;3.17;1.03;;;7.80;76.70;;;;;;2073845;28;20652;-65
2021/04/10 04:27:28;;;;;;;3.20;1.07;;;7.80;76.50;;;;;;2073806;28;20174;-67
2021/04/10 04:28:29;;;;;;;2.70;1.10;;;7.80;76.50;;;;;;2073731;28;20176;-66
2021/04/10 04:29:30;;;;;;;3.93;1.17;;;7.80;76.70;;;;;;2067219;28;20225;-65
2021/04/10 04:30:30;;;;;;;2.30;1.07;;;7.80;77.00;;;;;;2064999;28;20178;-66
2021/04/10 04:31:31;;;;;;;2.70;1.27;;;7.80;77.40;;;;;;2073559;28;20256;-64
2021/04/10 04:32:32;;;;;;;3.17;1.07;;;7.80;77.00;;;;;;2073702;28;20252;-65
2021/04/10 04:33:33;;;;;;;1.60;1.30;;;7.80;76.70;;;;;;2073763;28;20660;-65
2021/04/10 04:34:35;;;;;;;1.27;1.00;;;7.80;76.90;;;;;;2073562;28;20262;-65
2021/04/10 04:35:36;;;;;;;2.67;1.17;;;7.80;77.10;;;;;;2073042;28;20181;-64
2021/04/10 04:36:37;;;;;;;2.33;1.33;;;7.90;77.00;;;;;;2073070;28;20577;-66
2021/04/10 04:37:39;;;;;;;2.13;1.00;;;7.90;77.00;;;;;;2073716;28;20185;-65
2021/04/10 04:38:39;;;;;;;2.22;1.27;;;7.90;76.10;;;;;;2073623;28;20711;-64
2021/04/10 04:39:40;;;;;;;3.30;1.90;;;7.90;76.70;;;;;;2073598;28;20209;-65
2021/04/10 04:40:41;;;;;;;4.22;1.33;;;7.90;77.10;;;;;;2073504;28;20220;-65
2021/04/10 04:41:42;;;;;;;2.30;1.10;;;7.80;77.90;;;;;;2073508;28;20207;-65
2021/04/10 04:42:43;;;;;;;3.67;1.50;;;7.80;78.90;;;;;;2073636;28;20177;-68
2021/04/10 04:43:43;;;;;;;2.43;1.40;;;7.80;79.20;;;;;;2073681;28;20189;-67
2021/04/10 04:44:44;;;;;;;2.33;1.40;;;7.80;78.40;;;;;;2073594;28;20245;-63
2021/04/10 04:45:45;;;;;;;2.50;1.40;;;7.80;78.50;;;;;;2073556;28;20184;-64
2021/04/10 04:46:46;;;;;;;3.43;1.43;;;7.80;78.60;;;;;;2073557;28;20879;-64
2021/04/10 04:47:46;;;;;;;4.13;1.33;;;7.80;78.80;;;;;;2073592;28;20194;-66
2021/04/10 04:48:47;;;;;;;1.00;0.90;;;7.80;79.80;;;;;;2073509;28;20547;-65
2021/04/10 04:49:48;;;;;;;2.93;1.00;;;7.80;79.20;;;;;;2073589;28;20198;-64
2021/04/10 04:50:49;;;;;;;2.23;1.23;;;7.80;80.00;;;;;;2073449;28;20173;-67
2021/04/10 04:51:55;;;;;;;3.27;1.20;;;7.80;80.40;;;;;;2073560;28;20185;-65
2021/04/10 04:52:55;;;;;;;2.00;1.00;;;7.80;80.90;;;;;;2073858;28;20166;-64
2021/04/10 04:53:56;;;;;;;3.07;0.90;;;7.80;81.80;;;;;;2065348;28;20569;-65
2021/04/10 04:54:57;;;;;;;2.53;1.13;;;7.80;82.00;;;;;;2065021;28;20187;-66
2021/04/10 04:55:58;;;;;;;2.83;1.30;;;7.80;82.20;;;;;;2073708;28;20177;-66
2021/04/10 04:56:58;;;;;;;2.60;1.10;;;7.80;82.80;;;;;;2073980;28;20193;-64
2021/04/10 04:57:59;;;;;;;1.20;0.90;;;7.80;82.50;;;;;;2065310;28;20190;-66
2021/04/10 04:59:00;;;;;;;2.40;1.10;;;7.70;82.70;;;;;;2065232;28;20193;-65
2021/04/10 05:00:00;;;;;;;4.07;1.10;;;7.80;83.20;;;;;;2074095;28;20683;-64
2021/04/10 05:01:01;;;;;;;2.23;1.30;;;7.80;84.10;;;;;;2073888;28;20574;-65
2021/04/10 05:02:02;;;;;;;3.10;1.60;;;7.80;85.50;;;;;;2073858;28;20182;-65
2021/04/10 05:03:03;;;;;;;2.30;1.30;;;7.80;84.80;;;;;;2074013;28;20652;-66
2021/04/10 05:04:05;;;;;;;3.65;1.40;;;7.70;85.90;;;;;;2073700;28;20188;-65
2021/04/10 05:05:06;;;;;;;2.83;1.20;;;7.70;87.20;;;;;;2073933;28;20711;-67
2021/04/10 05:06:07;;;;;;;2.42;1.15;;;7.70;86.70;;;;;;2073952;28;20638;-65
2021/04/10 05:07:08;;;;;;;2.67;1.40;;;7.70;87.00;;;;;;2073801;28;20193;-66
2021/04/10 05:08:08;;;;;;;2.37;1.20;;;7.70;87.10;;;;;;2073852;28;20243;-65
2021/04/10 05:09:09;;;;;;;2.30;1.33;;;7.70;88.60;;;;;;2074038;28;20413;-65
2021/04/10 05:10:10;;;;;;;3.20;1.37;;;7.80;88.20;;;;;;2073979;28;20258;-65
2021/04/10 05:11:11;;;;;;;1.55;1.02;;;7.70;88.60;;;;;;2073724;28;20587;-65
2021/04/10 05:12:12;;;;;;;1.87;1.00;;;7.70;89.10;;;;;;2073682;28;20194;-66
2021/04/10 05:13:13;;;;;;;2.17;1.13;;;7.70;89.30;;;;;;2073989;28;20182;-66
2021/04/10 05:14:13;;;;;;;1.70;1.10;;;7.70;90.20;;;;;;2073723;28;20182;-65
2021/04/10 05:15:14;;;;;;;1.73;1.20;;;7.60;90.40;;;;;;2074091;28;20251;-64
2021/04/10 05:16:15;;;;;;;2.20;1.13;;;7.70;90.60;;;;;;2073773;28;20259;-64
2021/04/10 05:17:16;;;;;;;2.90;1.20;;;7.70;90.70;;;;;;2073226;28;20657;-66
2021/04/10 05:18:16;;;;;;;3.07;1.17;;;7.70;90.70;;;;;;2073349;28;20182;-64
2021/04/10 05:19:17;;;;;;;3.73;1.07;;;7.70;90.70;;;;;;2073892;28;20235;-66
2021/04/10 05:20:18;;;;;;;2.07;1.10;;;7.70;90.60;;;;;;2074013;28;20189;-66
2021/04/10 05:21:18;;;;;;;2.70;1.30;;;7.70;90.60;;;;;;2073584;28;20284;-66
2021/04/10 05:22:19;;;;;;;2.97;1.40;;;7.70;91.10;;;;;;2073674;28;20573;-66
2021/04/10 05:23:22;;;;;;;2.67;1.30;;;7.70;91.20;;;;;;2073669;28;20196;-66
2021/04/10 05:24:23;;;;;;;1.80;1.40;;;7.70;91.20;;;;;;2073877;28;20177;-66
2021/04/10 05:25:24;;;;;;;2.20;1.13;;;7.60;91.50;;;;;;2073831;28;20212;-65
2021/04/10 05:26:24;;;;;;;2.60;1.07;;;7.60;91.70;;;;;;2073820;28;20182;-65
2021/04/10 05:27:25;;;;;;;3.07;1.30;;;7.60;91.70;;;;;;2073740;28;20919;-65
2021/04/10 05:28:26;;;;;;;3.03;1.30;;;7.60;91.90;;;;;;2073638;28;20626;-66
2021/04/10 05:29:27;;;;;;;3.77;1.20;;;7.60;91.20;;;;;;2073571;28;20252;-65
2021/04/10 05:30:27;;;;;;;1.97;1.20;;;7.60;90.90;;;;;;2064915;28;20178;-65
2021/04/10 05:31:31;;;;;;;2.00;1.20;;;7.60;91.00;;;;;;2064866;28;20174;-65
2021/04/10 05:32:31;;;;;;;2.65;1.20;;;7.60;91.20;;;;;;2073566;28;20192;-65